sensor_id;sensor_type;location;lat;lon;timestamp;pressure;altitude;pressure_sealevel;temperature;humidity
71716;BME280;59568;52.128;5.434;2023-03-20T00:01:46;102075.66;;;7.88;91.41
71716;BME280;59568;52.128;5.434;2023-03-20T00:04:13;102067.84;;;7.88;91.60
71716;BME280;59568;52.128;5.434;2023-03-20T00:06:40;102079.31;;;7.87;91.36
71716;BME280;59568;52.128;5.434;2023-03-20T00:09:07;102070.94;;;7.85;91.39
71716;BME280;59568;52.128;5.434;2023-03-20T00:11:46;102070.13;;;7.85;91.58
71716;BME280;59568;52.128;5.434;2023-03-20T00:14:15;102071.41;;;7.82;91.47
71716;BME280;59568;52.128;5.434;2023-03-20T00:16:43;102080.81;;;7.83;91.56
71716;BME280;59568;52.128;5.434;2023-03-20T00:19:21;102083.63;;;7.82;91.56
71716;BME280;59568;52.128;5.434;2023-03-20T00:21:49;102076.28;;;7.78;91.47
71716;BME280;59568;52.128;5.434;2023-03-20T00:24:16;102075.97;;;7.75;91.82
71716;BME280;59568;52.128;5.434;2023-03-20T00:26:44;102070.78;;;7.75;91.84
71716;BME280;59568;52.128;5.434;2023-03-20T00:29:21;102060.38;;;7.75;91.74
71716;BME280;59568;52.128;5.434;2023-03-20T00:31:48;102070.53;;;7.76;91.72
71716;BME280;59568;52.128;5.434;2023-03-20T00:34:17;102063.75;;;7.75;91.47
71716;BME280;59568;52.128;5.434;2023-03-20T00:36:45;102069.97;;;7.74;91.68
71716;BME280;59568;52.128;5.434;2023-03-20T00:39:11;102059.56;;;7.74;91.46
71716;BME280;59568;52.128;5.434;2023-03-20T00:44:14;102050.53;;;7.77;91.60
71716;BME280;59568;52.128;5.434;2023-03-20T00:46:45;102060.13;;;7.76;91.53
71716;BME280;59568;52.128;5.434;2023-03-20T00:49:16;102075.66;;;7.71;91.66
71716;BME280;59568;52.128;5.434;2023-03-20T00:51:44;102077.47;;;7.71;91.67
71716;BME280;59568;52.128;5.434;2023-03-20T00:54:15;102080.09;;;7.71;91.85
71716;BME280;59568;52.128;5.434;2023-03-20T00:56:56;102093.09;;;7.71;92.10
71716;BME280;59568;52.128;5.434;2023-03-20T00:59:28;102101.91;;;7.70;91.99
71716;BME280;59568;52.128;5.434;2023-03-20T01:01:57;102108.38;;;7.67;91.93
71716;BME280;59568;52.128;5.434;2023-03-20T01:04:29;102119.00;;;7.66;92.04
71716;BME280;59568;52.128;5.434;2023-03-20T01:06:57;102121.59;;;7.66;92.25
71716;BME280;59568;52.128;5.434;2023-03-20T01:09:23;102121.59;;;7.66;92.02
71716;BME280;59568;52.128;5.434;2023-03-20T01:11:50;102119.78;;;7.66;92.06
71716;BME280;59568;52.128;5.434;2023-03-20T01:14:19;102119.00;;;7.66;92.13
71716;BME280;59568;52.128;5.434;2023-03-20T01:16:45;102101.84;;;7.65;91.91
71716;BME280;59568;52.128;5.434;2023-03-20T01:19:13;102086.22;;;7.65;91.51
71716;BME280;59568;52.128;5.434;2023-03-20T01:21:41;102096.63;;;7.65;91.46
71716;BME280;59568;52.128;5.434;2023-03-20T01:24:07;102101.84;;;7.65;91.20
71716;BME280;59568;52.128;5.434;2023-03-20T01:26:36;102116.97;;;7.68;91.20
71716;BME280;59568;52.128;5.434;2023-03-20T01:29:19;102112.78;;;7.67;90.89
71716;BME280;59568;52.128;5.434;2023-03-20T01:31:47;102107.03;;;7.65;90.75
71716;BME280;59568;52.128;5.434;2023-03-20T01:34:14;102101.84;;;7.65;90.79
71716;BME280;59568;52.128;5.434;2023-03-20T01:36:47;102098.69;;;7.63;90.72
71716;BME280;59568;52.128;5.434;2023-03-20T01:39:15;102121.06;;;7.64;90.62
71716;BME280;59568;52.128;5.434;2023-03-20T01:41:43;102113.25;;;7.64;90.34
71716;BME280;59568;52.128;5.434;2023-03-20T01:44:20;102103.06;;;7.62;90.28
71716;BME280;59568;52.128;5.434;2023-03-20T01:46:49;102091.31;;;7.59;90.32
71716;BME280;59568;52.128;5.434;2023-03-20T01:51:48;102097.25;;;7.55;89.99
71716;BME280;59568;52.128;5.434;2023-03-20T01:54:34;102106.06;;;7.54;90.15
71716;BME280;59568;52.128;5.434;2023-03-20T01:57:14;102093.53;;;7.51;89.92
71716;BME280;59568;52.128;5.434;2023-03-20T01:59:46;102097.91;;;7.50;89.63
71716;BME280;59568;52.128;5.434;2023-03-20T02:02:18;102085.28;;;7.42;89.62
71716;BME280;59568;52.128;5.434;2023-03-20T02:04:49;102083.16;;;7.39;89.54
71716;BME280;59568;52.128;5.434;2023-03-20T02:07:19;102084.09;;;7.33;89.77
71716;BME280;59568;52.128;5.434;2023-03-20T02:09:48;102096.00;;;7.29;89.69
71716;BME280;59568;52.128;5.434;2023-03-20T02:12:16;102092.28;;;7.25;89.50
71716;BME280;59568;52.128;5.434;2023-03-20T02:14:44;102087.28;;;7.23;89.86
71716;BME280;59568;52.128;5.434;2023-03-20T02:17:12;102082.31;;;7.22;89.96
71716;BME280;59568;52.128;5.434;2023-03-20T02:20:01;102085.41;;;7.18;89.64
71716;BME280;59568;52.128;5.434;2023-03-20T02:22:53;102099.41;;;7.17;89.72
71716;BME280;59568;52.128;5.434;2023-03-20T02:25:43;102098.63;;;7.17;89.93
71716;BME280;59568;52.128;5.434;2023-03-20T02:28:50;102084.84;;;7.16;90.19
71716;BME280;59568;52.128;5.434;2023-03-20T02:34:36;102066.09;;;7.14;90.32
71716;BME280;59568;52.128;5.434;2023-03-20T02:43:05;102079.75;;;7.10;90.06
71716;BME280;59568;52.128;5.434;2023-03-20T02:45:48;102071.19;;;7.09;90.13
71716;BME280;59568;52.128;5.434;2023-03-20T02:51:11;102074.00;;;7.08;89.87
71716;BME280;59568;52.128;5.434;2023-03-20T02:54:13;102071.41;;;7.08;90.30
71716;BME280;59568;52.128;5.434;2023-03-20T02:59:35;102053.44;;;7.06;89.98
71716;BME280;59568;52.128;5.434;2023-03-20T03:02:09;102050.84;;;7.06;90.03
71716;BME280;59568;52.128;5.434;2023-03-20T03:04:43;102045.88;;;7.05;90.31
71716;BME280;59568;52.128;5.434;2023-03-20T03:07:15;102027.13;;;7.03;90.16
71716;BME280;59568;52.128;5.434;2023-03-20T03:09:53;102017.97;;;7.00;90.31
71716;BME280;59568;52.128;5.434;2023-03-20T03:12:33;102008.84;;;6.97;90.40
71716;BME280;59568;52.128;5.434;2023-03-20T03:15:03;102012.16;;;6.93;90.08
71716;BME280;59568;52.128;5.434;2023-03-20T03:17:34;102019.81;;;6.88;90.06
71716;BME280;59568;52.128;5.434;2023-03-20T03:20:07;102014.31;;;6.84;90.34
71716;BME280;59568;52.128;5.434;2023-03-20T03:22:35;102009.81;;;6.79;90.07
71716;BME280;59568;52.128;5.434;2023-03-20T03:25:01;102023.25;;;6.76;90.15
71716;BME280;59568;52.128;5.434;2023-03-20T03:27:34;102027.34;;;6.72;90.39
71716;BME280;59568;52.128;5.434;2023-03-20T03:30:06;102031.97;;;6.70;90.16
71716;BME280;59568;52.128;5.434;2023-03-20T03:32:42;102031.41;;;6.68;90.00
71716;BME280;59568;52.128;5.434;2023-03-20T03:35:15;102017.31;;;6.64;90.22
71716;BME280;59568;52.128;5.434;2023-03-20T03:38:02;102019.56;;;6.60;90.31
71716;BME280;59568;52.128;5.434;2023-03-20T03:43:06;102008.72;;;6.52;90.37
71716;BME280;59568;52.128;5.434;2023-03-20T03:45:38;102009.66;;;6.46;90.34
71716;BME280;59568;52.128;5.434;2023-03-20T03:48:13;101999.16;;;6.40;90.18
71716;BME280;59568;52.128;5.434;2023-03-20T03:50:44;102004.81;;;6.37;89.98
71716;BME280;59568;52.128;5.434;2023-03-20T03:53:21;102009.91;;;6.32;90.37
71716;BME280;59568;52.128;5.434;2023-03-20T03:55:52;102002.56;;;6.29;90.68
71716;BME280;59568;52.128;5.434;2023-03-20T03:58:38;102009.78;;;6.27;90.33
71716;BME280;59568;52.128;5.434;2023-03-20T04:01:07;101995.69;;;6.23;90.12
71716;BME280;59568;52.128;5.434;2023-03-20T04:03:39;102002.91;;;6.21;90.50
71716;BME280;59568;52.128;5.434;2023-03-20T04:06:09;101993.56;;;6.20;90.38
71716;BME280;59568;52.128;5.434;2023-03-20T04:08:40;101982.03;;;6.16;90.63
71716;BME280;59568;52.128;5.434;2023-03-20T04:11:33;101984.31;;;6.12;90.67
71716;BME280;59568;52.128;5.434;2023-03-20T04:14:00;101989.50;;;6.12;90.79
71716;BME280;59568;52.128;5.434;2023-03-20T04:16:27;101989.72;;;6.11;90.78
71716;BME280;59568;52.128;5.434;2023-03-20T04:18:54;101986.56;;;6.09;90.81
71716;BME280;59568;52.128;5.434;2023-03-20T04:21:21;101988.72;;;6.12;91.04
71716;BME280;59568;52.128;5.434;2023-03-20T04:23:48;101989.50;;;6.12;91.11
71716;BME280;59568;52.128;5.434;2023-03-20T04:26:15;101984.31;;;6.12;91.24
71716;BME280;59568;52.128;5.434;2023-03-20T04:28:41;101984.31;;;6.12;91.31
71716;BME280;59568;52.128;5.434;2023-03-20T04:31:08;101976.28;;;6.14;91.27
71716;BME280;59568;52.128;5.434;2023-03-20T04:33:34;101979.69;;;6.14;91.03
71716;BME280;59568;52.128;5.434;2023-03-20T04:36:01;101977.84;;;6.15;91.08
71716;BME280;59568;52.128;5.434;2023-03-20T04:38:27;101983.06;;;6.15;91.42
71716;BME280;59568;52.128;5.434;2023-03-20T04:40:54;101994.47;;;6.14;90.85
71716;BME280;59568;52.128;5.434;2023-03-20T04:43:21;101985.66;;;6.15;90.96
71716;BME280;59568;52.128;5.434;2023-03-20T04:45:47;101979.47;;;6.16;90.97
71716;BME280;59568;52.128;5.434;2023-03-20T04:48:14;101994.00;;;6.17;90.97
71716;BME280;59568;52.128;5.434;2023-03-20T04:50:40;101994.00;;;6.17;90.89
71716;BME280;59568;52.128;5.434;2023-03-20T04:53:07;101988.03;;;6.16;91.23
71716;BME280;59568;52.128;5.434;2023-03-20T04:55:34;101999.19;;;6.17;90.82
71716;BME280;59568;52.128;5.434;2023-03-20T04:58:01;101987.25;;;6.16;91.01
71716;BME280;59568;52.128;5.434;2023-03-20T05:00:27;101983.41;;;6.18;91.05
71716;BME280;59568;52.128;5.434;2023-03-20T05:02:54;101986.78;;;6.19;91.18
71716;BME280;59568;52.128;5.434;2023-03-20T05:05:20;101981.59;;;6.19;91.04
71716;BME280;59568;52.128;5.434;2023-03-20T05:07:49;101982.38;;;6.19;91.22
71716;BME280;59568;52.128;5.434;2023-03-20T05:10:15;101974.81;;;6.18;91.07
71716;BME280;59568;52.128;5.434;2023-03-20T05:12:42;101976.38;;;6.19;91.05
71716;BME280;59568;52.128;5.434;2023-03-20T05:15:09;101973.78;;;6.19;91.10
71716;BME280;59568;52.128;5.434;2023-03-20T05:17:36;101968.38;;;6.20;91.04
71716;BME280;59568;52.128;5.434;2023-03-20T05:20:02;101969.63;;;6.18;91.04
71716;BME280;59568;52.128;5.434;2023-03-20T05:22:29;101966.00;;;6.19;91.04
71716;BME280;59568;52.128;5.434;2023-03-20T05:24:55;101971.41;;;6.17;90.65
71716;BME280;59568;52.128;5.434;2023-03-20T05:27:22;101981.59;;;6.19;91.21
71716;BME280;59568;52.128;5.434;2023-03-20T05:29:48;101977.97;;;6.20;91.23
71716;BME280;59568;52.128;5.434;2023-03-20T05:32:15;101976.38;;;6.19;91.30
71716;BME280;59568;52.128;5.434;2023-03-20T05:34:42;101978.75;;;6.20;91.11
71716;BME280;59568;52.128;5.434;2023-03-20T05:37:08;101971.41;;;6.17;91.25
71716;BME280;59568;52.128;5.434;2023-03-20T05:39:35;101966.00;;;6.19;91.34
71716;BME280;59568;52.128;5.434;2023-03-20T05:42:01;101971.97;;;6.19;91.16
71716;BME280;59568;52.128;5.434;2023-03-20T05:44:28;101976.38;;;6.19;90.95
71716;BME280;59568;52.128;5.434;2023-03-20T05:46:54;101984.19;;;6.19;91.26
71716;BME280;59568;52.128;5.434;2023-03-20T05:49:21;101987.56;;;6.19;91.14
71716;BME280;59568;52.128;5.434;2023-03-20T05:51:47;101988.38;;;6.20;91.10
71716;BME280;59568;52.128;5.434;2023-03-20T05:54:14;102000.31;;;6.21;90.98
71716;BME280;59568;52.128;5.434;2023-03-20T05:56:40;102002.91;;;6.21;91.15
71716;BME280;59568;52.128;5.434;2023-03-20T05:59:07;102001.91;;;6.22;91.33
71716;BME280;59568;52.128;5.434;2023-03-20T06:01:33;102001.91;;;6.22;90.80
71716;BME280;59568;52.128;5.434;2023-03-20T06:04:00;102012.84;;;6.24;91.13
71716;BME280;59568;52.128;5.434;2023-03-20T06:06:26;102002.00;;;6.27;91.17
71716;BME280;59568;52.128;5.434;2023-03-20T06:08:53;102004.94;;;6.31;91.33
71716;BME280;59568;52.128;5.434;2023-03-20T06:11:19;101994.31;;;6.32;91.29
71716;BME280;59568;52.128;5.434;2023-03-20T06:13:46;101989.69;;;6.34;91.09
71716;BME280;59568;52.128;5.434;2023-03-20T06:16:12;101986.88;;;6.36;91.10
71716;BME280;59568;52.128;5.434;2023-03-20T06:18:39;101980.88;;;6.35;91.42
71716;BME280;59568;52.128;5.434;2023-03-20T06:21:06;101990.81;;;6.38;91.14
71716;BME280;59568;52.128;5.434;2023-03-20T06:23:33;101988.00;;;6.40;91.13
71716;BME280;59568;52.128;5.434;2023-03-20T06:25:59;101996.78;;;6.39;91.13
71716;BME280;59568;52.128;5.434;2023-03-20T06:28:26;102000.44;;;6.38;91.13
71716;BME280;59568;52.128;5.434;2023-03-20T06:30:52;102001.53;;;6.42;91.18
71716;BME280;59568;52.128;5.434;2023-03-20T06:33:20;102006.19;;;6.40;91.10
71716;BME280;59568;52.128;5.434;2023-03-20T06:35:47;102019.94;;;6.40;90.92
71716;BME280;59568;52.128;5.434;2023-03-20T06:38:14;102023.53;;;6.39;90.71
71716;BME280;59568;52.128;5.434;2023-03-20T06:40:40;102018.13;;;6.41;90.94
71716;BME280;59568;52.128;5.434;2023-03-20T06:43:08;102015.31;;;6.43;90.53
71716;BME280;59568;52.128;5.434;2023-03-20T06:45:37;102023.66;;;6.45;91.09
71716;BME280;59568;52.128;5.434;2023-03-20T06:48:08;102022.19;;;6.49;90.77
71716;BME280;59568;52.128;5.434;2023-03-20T06:50:34;102017.78;;;6.49;91.06
71716;BME280;59568;52.128;5.434;2023-03-20T06:53:01;102027.72;;;6.52;90.97
71716;BME280;59568;52.128;5.434;2023-03-20T06:55:28;102020.72;;;6.53;90.89
71716;BME280;59568;52.128;5.434;2023-03-20T06:57:55;102018.44;;;6.56;90.92
71716;BME280;59568;52.128;5.434;2023-03-20T07:00:21;102022.16;;;6.60;90.89
71716;BME280;59568;52.128;5.434;2023-03-20T07:02:48;102027.13;;;6.62;90.80
71716;BME280;59568;52.128;5.434;2023-03-20T07:05:15;102025.53;;;6.61;90.89
71716;BME280;59568;52.128;5.434;2023-03-20T07:07:42;102026.88;;;6.64;90.71
71716;BME280;59568;52.128;5.434;2023-03-20T07:10:09;102027.13;;;6.62;90.78
71716;BME280;59568;52.128;5.434;2023-03-20T07:12:37;102025.31;;;6.63;90.47
71716;BME280;59568;52.128;5.434;2023-03-20T07:15:04;102017.31;;;6.64;90.42
71716;BME280;59568;52.128;5.434;2023-03-20T07:17:31;102024.63;;;6.67;90.47
71716;BME280;59568;52.128;5.434;2023-03-20T07:19:57;102029.38;;;6.70;90.18
71716;BME280;59568;52.128;5.434;2023-03-20T07:22:25;102027.78;;;6.69;90.71
71716;BME280;59568;52.128;5.434;2023-03-20T07:24:52;102027.22;;;6.67;90.38
71716;BME280;59568;52.128;5.434;2023-03-20T07:27:19;102028.56;;;6.70;90.30
71716;BME280;59568;52.128;5.434;2023-03-20T07:29:46;102026.53;;;6.72;90.27
71716;BME280;59568;52.128;5.434;2023-03-20T07:32:13;102024.75;;;6.72;90.34
71716;BME280;59568;52.128;5.434;2023-03-20T07:34:39;102021.59;;;6.70;89.88
71716;BME280;59568;52.128;5.434;2023-03-20T07:37:06;102040.09;;;6.74;89.70
71716;BME280;59568;52.128;5.434;2023-03-20T07:39:32;102026.31;;;6.73;89.85
71716;BME280;59568;52.128;5.434;2023-03-20T07:41:59;102025.88;;;6.76;90.01
71716;BME280;59568;52.128;5.434;2023-03-20T07:44:26;102029.81;;;6.79;90.00
71716;BME280;59568;52.128;5.434;2023-03-20T07:46:52;102035.91;;;6.85;89.85
71716;BME280;59568;52.128;5.434;2023-03-20T07:49:20;102031.25;;;6.87;89.67
71716;BME280;59568;52.128;5.434;2023-03-20T07:51:49;102038.56;;;6.90;89.92
71716;BME280;59568;52.128;5.434;2023-03-20T07:54:16;102029.78;;;6.91;89.82
71716;BME280;59568;52.128;5.434;2023-03-20T07:56:43;102029.28;;;6.94;89.42
71716;BME280;59568;52.128;5.434;2023-03-20T07:59:09;102032.44;;;6.96;89.29
71716;BME280;59568;52.128;5.434;2023-03-20T08:01:36;102031.78;;;7.00;89.20
71716;BME280;59568;52.128;5.434;2023-03-20T08:04:04;102031.06;;;7.05;89.17
71716;BME280;59568;52.128;5.434;2023-03-20T08:06:30;102030.59;;;7.08;89.17
71716;BME280;59568;52.128;5.434;2023-03-20T08:08:57;102031.50;;;7.14;88.88
71716;BME280;59568;52.128;5.434;2023-03-20T08:11:24;102030.56;;;7.20;89.11
71716;BME280;59568;52.128;5.434;2023-03-20T08:13:50;102023.63;;;7.26;88.66
71716;BME280;59568;52.128;5.434;2023-03-20T08:16:17;102026.34;;;7.31;88.69
71716;BME280;59568;52.128;5.434;2023-03-20T08:18:44;102029.00;;;7.36;88.45
71716;BME280;59568;52.128;5.434;2023-03-20T08:21:10;102025.47;;;7.42;88.48
71716;BME280;59568;52.128;5.434;2023-03-20T08:23:37;102022.44;;;7.45;88.30
71716;BME280;59568;52.128;5.434;2023-03-20T08:26:03;102030.56;;;7.49;87.89
71716;BME280;59568;52.128;5.434;2023-03-20T08:28:30;102024.63;;;7.53;87.65
71716;BME280;59568;52.128;5.434;2023-03-20T08:31:12;102028.66;;;7.61;87.55
71716;BME280;59568;52.128;5.434;2023-03-20T08:33:39;102026.47;;;7.70;87.56
71716;BME280;59568;52.128;5.434;2023-03-20T08:36:06;102029.94;;;7.75;86.82
71716;BME280;59568;52.128;5.434;2023-03-20T08:38:33;102022.13;;;7.75;86.63
71716;BME280;59568;52.128;5.434;2023-03-20T08:41:00;102028.66;;;7.78;86.37
71716;BME280;59568;52.128;5.434;2023-03-20T08:43:26;102021.97;;;7.82;85.99
71716;BME280;59568;52.128;5.434;2023-03-20T08:45:53;102025.91;;;7.85;85.56
71716;BME280;59568;52.128;5.434;2023-03-20T08:48:20;102018.97;;;7.90;85.27
71716;BME280;59568;52.128;5.434;2023-03-20T08:50:47;102027.94;;;7.99;84.98
71716;BME280;59568;52.128;5.434;2023-03-20T08:53:13;102018.09;;;8.02;84.33
71716;BME280;59568;52.128;5.434;2023-03-20T08:55:40;102020.75;;;8.07;84.37
71716;BME280;59568;52.128;5.434;2023-03-20T08:58:06;102021.16;;;8.15;84.56
71716;BME280;59568;52.128;5.434;2023-03-20T09:00:33;102021.06;;;8.27;84.65
71716;BME280;59568;52.128;5.434;2023-03-20T09:02:59;102018.72;;;8.31;83.86
71716;BME280;59568;52.128;5.434;2023-03-20T09:05:26;102020.00;;;8.28;83.82
71716;BME280;59568;52.128;5.434;2023-03-20T09:07:52;102032.03;;;8.29;84.01
71716;BME280;59568;52.128;5.434;2023-03-20T09:10:19;102027.59;;;8.30;83.54
71716;BME280;59568;52.128;5.434;2023-03-20T09:12:45;102033.66;;;8.35;84.04
71716;BME280;59568;52.128;5.434;2023-03-20T09:15:12;102031.69;;;8.43;84.38
71716;BME280;59568;52.128;5.434;2023-03-20T09:17:39;102033.81;;;8.46;84.29
71716;BME280;59568;52.128;5.434;2023-03-20T09:20:05;102032.78;;;8.47;84.30
71716;BME280;59568;52.128;5.434;2023-03-20T09:22:32;102041.94;;;8.49;84.60
71716;BME280;59568;52.128;5.434;2023-03-20T09:24:59;102046.19;;;8.55;84.72
71716;BME280;59568;52.128;5.434;2023-03-20T09:27:25;102036.31;;;8.57;84.95
71716;BME280;59568;52.128;5.434;2023-03-20T09:29:52;102037.16;;;8.63;85.09
71716;BME280;59568;52.128;5.434;2023-03-20T09:32:18;102038.97;;;8.63;84.74
71716;BME280;59568;52.128;5.434;2023-03-20T09:34:45;102044.56;;;8.71;85.39
71716;BME280;59568;52.128;5.434;2023-03-20T09:37:11;102038.84;;;8.74;85.18
71716;BME280;59568;52.128;5.434;2023-03-20T09:39:38;102048.25;;;8.75;85.27
71716;BME280;59568;52.128;5.434;2023-03-20T09:51:50;102033.75;;;8.85;85.48
71716;BME280;59568;52.128;5.434;2023-03-20T09:54:07;102039.34;;;8.93;85.35
71716;BME280;59568;52.128;5.434;2023-03-20T09:56:37;102036.31;;;9.02;85.31
71716;BME280;59568;52.128;5.434;2023-03-20T09:59:04;102029.91;;;9.14;85.31
71716;BME280;59568;52.128;5.434;2023-03-20T10:01:44;102026.75;;;9.12;84.41
71716;BME280;59568;52.128;5.434;2023-03-20T10:04:13;102014.25;;;9.14;84.18
71716;BME280;59568;52.128;5.434;2023-03-20T10:06:41;102023.16;;;9.18;84.17
71716;BME280;59568;52.128;5.434;2023-03-20T10:09:24;102022.72;;;9.27;84.38
71716;BME280;59568;52.128;5.434;2023-03-20T10:12:17;102018.13;;;9.39;84.98
71716;BME280;59568;52.128;5.434;2023-03-20T10:14:56;102021.03;;;9.43;84.55
71716;BME280;59568;52.128;5.434;2023-03-20T10:20:47;102020.66;;;9.61;83.76
71716;BME280;59568;52.128;5.434;2023-03-20T10:26:16;102024.63;;;9.69;83.91
71716;BME280;59568;52.128;5.434;2023-03-20T10:28:58;102018.41;;;9.75;84.04
71716;BME280;59568;52.128;5.434;2023-03-20T10:37:22;102019.41;;;9.69;82.72
71716;BME280;59568;52.128;5.434;2023-03-20T10:42:35;102004.22;;;9.60;83.18
71716;BME280;59568;52.128;5.434;2023-03-20T10:45:21;102013.13;;;9.65;83.59
71716;BME280;59568;52.128;5.434;2023-03-20T10:47:53;102004.97;;;9.56;83.52
71716;BME280;59568;52.128;5.434;2023-03-20T10:50:27;102010.44;;;9.59;84.08
71716;BME280;59568;52.128;5.434;2023-03-20T10:52:56;102009.44;;;9.66;84.67
71716;BME280;59568;52.128;5.434;2023-03-20T10:55:30;102017.72;;;9.52;83.79
71716;BME280;59568;52.128;5.434;2023-03-20T10:58:13;102007.53;;;9.51;84.33
71716;BME280;59568;52.128;5.434;2023-03-20T11:00:41;102006.81;;;9.60;84.82
71716;BME280;59568;52.128;5.434;2023-03-20T11:03:19;102006.59;;;9.67;84.86
71716;BME280;59568;52.128;5.434;2023-03-20T11:05:55;102001.69;;;9.71;84.43
71716;BME280;59568;52.128;5.434;2023-03-20T11:08:40;102005.31;;;9.70;84.33
71716;BME280;59568;52.128;5.434;2023-03-20T11:11:07;102003.34;;;9.82;85.11
71716;BME280;59568;52.128;5.434;2023-03-20T11:13:42;101994.50;;;9.93;85.25
71716;BME280;59568;52.128;5.434;2023-03-20T11:16:21;101996.03;;;9.84;84.25
71716;BME280;59568;52.128;5.434;2023-03-20T11:18:49;101997.81;;;9.78;84.71
71716;BME280;59568;52.128;5.434;2023-03-20T11:21:28;101999.19;;;9.86;84.47
71716;BME280;59568;52.128;5.434;2023-03-20T11:23:56;102005.66;;;9.78;84.54
71716;BME280;59568;52.128;5.434;2023-03-20T11:26:34;101995.59;;;9.60;84.20
71716;BME280;59568;52.128;5.434;2023-03-20T11:29:05;101998.38;;;9.48;84.69
71716;BME280;59568;52.128;5.434;2023-03-20T11:31:38;101983.22;;;9.45;85.00
71716;BME280;59568;52.128;5.434;2023-03-20T11:36:55;101977.38;;;9.33;85.58
71716;BME280;59568;52.128;5.434;2023-03-20T11:39:34;101970.69;;;9.47;85.98
71716;BME280;59568;52.128;5.434;2023-03-20T11:42:03;101972.06;;;9.55;85.85
71716;BME280;59568;52.128;5.434;2023-03-20T11:45:05;101973.84;;;9.49;85.85
71716;BME280;59568;52.128;5.434;2023-03-20T11:47:33;101965.81;;;9.56;86.05
71716;BME280;59568;52.128;5.434;2023-03-20T11:50:04;101972.84;;;9.55;85.70
71716;BME280;59568;52.128;5.434;2023-03-20T11:52:36;101963.94;;;9.51;85.69
71716;BME280;59568;52.128;5.434;2023-03-20T11:55:22;101961.63;;;9.55;85.92
71716;BME280;59568;52.128;5.434;2023-03-20T11:57:49;101953.03;;;9.59;85.94
71716;BME280;59568;52.128;5.434;2023-03-20T12:00:22;101961.16;;;9.58;86.40
71716;BME280;59568;52.128;5.434;2023-03-20T12:02:49;101963.78;;;9.63;86.39
71716;BME280;59568;52.128;5.434;2023-03-20T12:05:32;101961.28;;;9.78;86.79
71716;BME280;59568;52.128;5.434;2023-03-20T12:08:06;101963.13;;;9.83;86.58
71716;BME280;59568;52.128;5.434;2023-03-20T12:10:40;101958.69;;;9.84;86.20
71716;BME280;59568;52.128;5.434;2023-03-20T12:13:34;101956.34;;;9.87;86.33
71716;BME280;59568;52.128;5.434;2023-03-20T12:16:11;101953.78;;;9.92;86.18
71716;BME280;59568;52.128;5.434;2023-03-20T12:19:15;101958.97;;;9.87;85.96
71716;BME280;59568;52.128;5.434;2023-03-20T12:21:53;101953.19;;;9.80;85.86
71716;BME280;59568;52.128;5.434;2023-03-20T12:24:40;101959.97;;;9.81;86.04
71716;BME280;59568;52.128;5.434;2023-03-20T12:27:21;101954.97;;;9.74;85.81
71716;BME280;59568;52.128;5.434;2023-03-20T12:30:15;101959.91;;;9.71;86.27
71716;BME280;59568;52.128;5.434;2023-03-20T12:35:51;101957.47;;;9.59;85.94
71716;BME280;59568;52.128;5.434;2023-03-20T12:38:21;101950.41;;;9.54;86.22
71716;BME280;59568;52.128;5.434;2023-03-20T12:40:54;101953.50;;;9.51;86.72
71716;BME280;59568;52.128;5.434;2023-03-20T12:43:24;101947.03;;;9.59;87.32
71716;BME280;59568;52.128;5.434;2023-03-20T12:54:23;101935.94;;;9.74;88.15
71716;BME280;59568;52.128;5.434;2023-03-20T13:02:53;101932.28;;;9.75;88.65
71716;BME280;59568;52.128;5.434;2023-03-20T13:10:49;101930.78;;;9.84;88.53
71716;BME280;59568;52.128;5.434;2023-03-20T13:13:52;101920.75;;;9.71;88.21
71716;BME280;59568;52.128;5.434;2023-03-20T13:19:36;101924.69;;;9.73;88.98
71716;BME280;59568;52.128;5.434;2023-03-20T13:22:21;101922.03;;;9.63;89.01
71716;BME280;59568;52.128;5.434;2023-03-20T13:25:02;101908.97;;;9.58;88.88
71716;BME280;59568;52.128;5.434;2023-03-20T13:27:44;101922.53;;;9.60;89.26
71716;BME280;59568;52.128;5.434;2023-03-20T13:30:23;101912.56;;;9.52;89.02
71716;BME280;59568;52.128;5.434;2023-03-20T13:35:48;101906.81;;;9.50;89.42
71716;BME280;59568;52.128;5.434;2023-03-20T13:38:21;101918.06;;;9.55;89.79
71716;BME280;59568;52.128;5.434;2023-03-20T13:40:54;101909.44;;;9.50;89.65
71716;BME280;59568;52.128;5.434;2023-03-20T13:43:57;101904.94;;;9.45;89.80
71716;BME280;59568;52.128;5.434;2023-03-20T13:46:25;101901.03;;;9.43;90.07
71716;BME280;59568;52.128;5.434;2023-03-20T13:48:58;101896.59;;;9.43;90.27
71716;BME280;59568;52.128;5.434;2023-03-20T13:52:14;101900.00;;;9.49;90.46
71716;BME280;59568;52.128;5.434;2023-03-20T13:54:55;101900.53;;;9.46;90.55
71716;BME280;59568;52.128;5.434;2023-03-20T14:05:43;101895.56;;;9.44;90.81
71716;BME280;59568;52.128;5.434;2023-03-20T14:11:23;101895.50;;;9.39;90.71
71716;BME280;59568;52.128;5.434;2023-03-20T14:14:07;101895.50;;;9.39;91.25
71716;BME280;59568;52.128;5.434;2023-03-20T14:16:37;101890.81;;;9.36;91.27
71716;BME280;59568;52.128;5.434;2023-03-20T14:19:18;101901.25;;;9.36;90.98
71716;BME280;59568;52.128;5.434;2023-03-20T14:21:47;101892.38;;;9.37;90.70
71716;BME280;59568;52.128;5.434;2023-03-20T14:24:15;101894.97;;;9.32;90.91
71716;BME280;59568;52.128;5.434;2023-03-20T14:26:48;101900.38;;;9.25;90.63
71716;BME280;59568;52.128;5.434;2023-03-20T14:31:41;101893.78;;;9.17;90.72
71716;BME280;59568;52.128;5.434;2023-03-20T14:39:39;101891.06;;;9.02;91.01
71716;BME280;59568;52.128;5.434;2023-03-20T14:50:31;101889.94;;;8.93;91.74
71716;BME280;59568;52.128;5.434;2023-03-20T14:53:17;101891.84;;;8.97;92.18
71716;BME280;59568;52.128;5.434;2023-03-20T14:58:34;101882.97;;;8.98;92.32
71716;BME280;59568;52.128;5.434;2023-03-20T15:01:06;101883.19;;;8.97;92.54
71716;BME280;59568;52.128;5.434;2023-03-20T15:03:36;101884.78;;;8.98;92.64
71716;BME280;59568;52.128;5.434;2023-03-20T15:06:06;101892.56;;;8.93;92.72
71716;BME280;59568;52.128;5.434;2023-03-20T15:08:40;101887.34;;;8.93;92.86
71716;BME280;59568;52.128;5.434;2023-03-20T15:11:11;101891.28;;;8.95;93.20